Hildegaard — C6QU3 — position and weather

sailwx.info

Track history (hours):
 
Tides and Currents Weather Stations Pressure Air Temp Water Temp Dewpoint Dewpoint Depression Visibility Wind Speed Wind Dir Waves Ship Positions

Hildegaard

Last reported at 2017-Feb-26 08:32 UTC. Time now 2017-Feb-27 04:37 UTC.
Position N 55°18' W 000°55'.

Length 248 m; draft 8.6 m.

Type: Ship (hazmat cat A). MMSI: 308574000.

Date/timePositionNaut miles runAvg speedWind from/ knotsBaromVisibWave heightAir tempDewpointWater temp
2017-Feb-26 08:32N 55°18' W 000°55'7 7.4
2017-Feb-26 07:33N 55°11' W 000°56'9 8.6
2017-Feb-26 06:33N 55°02' W 000°57'8 8.0
2017-Feb-26 05:32N 54°54' W 000°58'29 5.8
2017-Feb-26 00:33N 54°31' W 000°28'6 5.6
2017-Feb-25 23:34N 54°26' W 000°23'6 6.4
2017-Feb-25 22:33N 54°21' W 000°16'7 6.6
2017-Feb-25 21:33N 54°16' W 000°09'7 6.8
2017-Feb-25 20:33N 54°10' W 000°02'7 6.8
2017-Feb-25 19:33N 54°04' E 000°01'1 0.4
2017-Feb-25 17:22N 54°03' E 000°01'0 0.0
2017-Feb-25 16:31N 54°03' E 000°01'0 0.1
2017-Feb-25 15:31N 54°03' E 000°01'0 0.1
2017-Feb-25 14:31N 54°03' E 000°01'0 0.1
2017-Feb-25 13:31N 54°03' E 000°01'0 0.0
2017-Feb-25 12:19N 54°03' E 000°01'0 0.2
2017-Feb-25 11:31N 54°03' E 000°01'0 0.0
2017-Feb-25 10:28N 54°03' E 000°01'0 0.0
2017-Feb-25 09:31N 54°03' E 000°01'0 0.0
2017-Feb-25 08:28N 54°03' E 000°01'0 0.0
2017-Feb-25 07:25N 54°03' E 000°01'0 0.0
2017-Feb-25 06:31N 54°03' E 000°01'0 0.0
2017-Feb-25 05:28N 54°03' E 000°01'0 0.1
2017-Feb-25 04:28N 54°03' E 000°01'0 0.2
2017-Feb-25 03:31N 54°03' E 000°01'0 0.0
2017-Feb-25 02:31N 54°03' E 000°01'0 0.1
2017-Feb-25 01:31N 54°03' E 000°00'0 0.1
2017-Feb-25 00:25N 54°03' E 000°00'0 0.0
2017-Feb-24 22:04N 54°03' E 000°01'0 0.0
2017-Feb-24 20:28N 54°03' E 000°01'0 0.0
2017-Feb-24 19:22N 54°03' E 000°01'0 0.2
2017-Feb-24 18:22N 54°03' E 000°00'0 0.2
2017-Feb-24 17:31N 54°03' E 000°00'0 0.0
2017-Feb-24 16:31N 54°03' E 000°00'0 0.0
2017-Feb-24 15:31N 54°03' E 000°00'0 0.0
2017-Feb-24 14:31N 54°03' E 000°00'0 0.0
2017-Feb-24 13:28N 54°03' E 000°00'0 0.0
2017-Feb-24 12:31N 54°03' E 000°00'0 0.0
2017-Feb-24 11:28N 54°03' E 000°00'0 0.0
2017-Feb-24 10:31N 54°03' E 000°00'0 0.1
2017-Feb-24 09:31N 54°03' E 000°00'4 4.1
2017-Feb-24 08:34N 54°07' W 000°00'9 8.8
2017-Feb-24 07:33N 54°14' W 000°08'6 6.2
2017-Feb-24 06:34N 54°19' W 000°15'1 1.0
2017-Feb-24 05:33N 54°19' W 000°13'4 3.6
2017-Feb-24 04:34N 54°16' W 000°09'3 3.2
2017-Feb-24 03:33N 54°13' W 000°06'3 2.5
2017-Feb-24 02:34N 54°11' W 000°04'2 2.2
2017-Feb-24 01:34N 54°09' W 000°02'2 2.1
2017-Feb-24 00:33N 54°07' W 000°01'3 2.5
2017-Feb-23 23:34N 54°05' W 000°00'3 2.6
2017-Feb-23 22:33N 54°02' E 000°02'9 8.8
2017-Feb-23 21:33N 54°11' W 000°03'2 2.4
2017-Feb-23 20:33N 54°09' E 000°00'5 5.0
2017-Feb-23 19:34N 54°05' E 000°04'4 4.0
2017-Feb-23 18:33N 54°02' E 000°09'7 7.4
2017-Feb-23 17:33N 53°58' E 000°20'171 5.9
2017-Feb-22 12:29N 51°31' E 002°45'8 9.0
2017-Feb-22 11:34N 51°23' E 002°46'9 9.0
2017-Feb-22 10:33N 51°24' E 003°00'9 9.2
2017-Feb-22 09:34N 51°25' E 003°15'9 9.4
2017-Feb-22 08:34N 51°25' E 003°30'8 8.2
2017-Feb-22 07:33N 51°25' E 003°43'2 2.0
2017-Feb-22 06:32N 51°24' E 003°46'0 0.0
2017-Feb-22 05:32N 51°24' E 003°45'0 0.1
2017-Feb-22 04:32N 51°24' E 003°45'0 0.1
2017-Feb-22 03:32N 51°24' E 003°45'0 0.0
2017-Feb-22 02:23N 51°24' E 003°45'0 0.1
2017-Feb-22 01:20N 51°24' E 003°45'0 0.0
2017-Feb-22 00:32N 51°24' E 003°45'0 0.0
2017-Feb-21 23:32N 51°24' E 003°45'0 0.1
2017-Feb-21 22:29N 51°24' E 003°45'0 0.1
2017-Feb-21 21:29N 51°24' E 003°45'0 0.0
2017-Feb-21 20:26N 51°24' E 003°45'0 0.0
2017-Feb-21 19:29N 51°24' E 003°45'0 0.0
2017-Feb-21 18:23N 51°24' E 003°45'0 0.1
2017-Feb-21 17:29N 51°24' E 003°45'0 0.2
2017-Feb-21 16:32N 51°24' E 003°45'0 0.0
2017-Feb-21 15:32N 51°24' E 003°45'0 0.1
2017-Feb-21 14:32N 51°24' E 003°45'0 0.0
2017-Feb-21 13:32N 51°24' E 003°45'0 0.0
2017-Feb-21 12:32N 51°24' E 003°45'0 0.0
2017-Feb-21 11:33N 51°24' E 003°45'0 0.1
2017-Feb-21 10:33N 51°24' E 003°45'4 4.5
2017-Feb-21 09:33N 51°26' E 003°39'1212.5
2017-Feb-21 08:33N 51°24' E 003°20'1212.4
2017-Feb-21 07:33N 51°23' E 002°60'1111.4
2017-Feb-21 06:33N 51°22' E 002°42'1010.4
2017-Feb-21 05:33N 51°21' E 002°25'1211.8
2017-Feb-21 04:33N 51°14' E 002°09'9 9.1
2017-Feb-21 03:33N 51°10' E 001°56'7 6.6
2017-Feb-21 02:33N 51°07' E 001°48'6 6.3
2017-Feb-21 01:33N 51°02' E 001°40'9 8.5
2017-Feb-21 00:33N 50°56' E 001°31'1111.1
2017-Feb-20 23:33N 50°46' E 001°23'5610.9
2017-Feb-20 18:24N 50°19' E 000°06'1112.4
2017-Feb-20 17:33N 50°17' W 000°10'4110.3
2017-Feb-20 13:33N 50°06' W 001°12'7 7.2
2017-Feb-20 12:33N 50°05' W 001°23'6 6.5
2017-Feb-20 11:33N 50°04' W 001°33'6 5.7
2017-Feb-20 10:33N 50°02' W 001°42'6 5.6
2017-Feb-20 09:33N 49°59' W 001°50'6 6.3
2017-Feb-20 08:33N 49°57' W 001°59'6 6.0
2017-Feb-20 07:33N 49°55' W 002°08'20011.5
2017-Feb-19 14:10N 47°60' W 006°15'  
2017-Feb-17 05:10N 39°27' W 009°52'5 8.0
2017-Feb-17 04:33N 39°22' W 009°52'8 8.2
2017-Feb-17 03:33N 39°14' W 009°52'8 7.7
2017-Feb-17 02:33N 39°06' W 009°52'8 7.6
2017-Feb-17 01:33N 38°59' W 009°52'7 7.5
2017-Feb-17 00:33N 38°51' W 009°52'8 7.5
2017-Feb-16 23:34N 38°44' W 009°50'7 7.3
2017-Feb-16 22:34N 38°37' W 009°48'8 7.7
2017-Feb-16 21:33N 38°31' W 009°41'7 7.4
2017-Feb-16 20:33N 38°26' W 009°34'7 7.4
2017-Feb-16 19:34N 38°21' W 009°27'7 7.3
2017-Feb-16 18:33N 38°16' W 009°21'8 7.6
2017-Feb-16 17:34N 38°10' W 009°15'8 7.5
2017-Feb-16 16:33N 38°04' W 009°09'8 7.6
2017-Feb-16 15:34N 37°59' W 009°02'5 4.8
2017-Feb-16 14:34N 37°55' W 008°58'0 0.4
2017-Feb-16 13:33N 37°55' W 008°59'1 1.0
2017-Feb-16 12:34N 37°54' W 008°58'1 1.2
2017-Feb-16 11:34N 37°53' W 008°59'1 1.1
2017-Feb-16 10:34N 37°51' W 008°58'1 0.7
2017-Feb-16 09:34N 37°51' W 008°58'0 0.5
2017-Feb-16 08:33N 37°51' W 008°57'  
Track history (hours):
 
Tides and Currents Weather Stations Pressure Air Temp Water Temp Dewpoint Dewpoint Depression Visibility Wind Speed Wind Dir Waves Ship Positions

Hildegaard

Last reported at 2017-Feb-26 08:32 UTC. Time now 2017-Feb-27 04:37 UTC.
Position N 55°18' W 000°55'.

Length 248 m; draft 8.6 m.

Type: Ship (hazmat cat A). MMSI: 308574000.

Date/timePositionNaut miles runAvg speedWind from/ knotsBaromVisibWave heightAir tempDewpointWater temp
2017-Feb-26 08:32N 55°18' W 000°55'7 7.4
2017-Feb-26 07:33N 55°11' W 000°56'9 8.6
2017-Feb-26 06:33N 55°02' W 000°57'8 8.0
2017-Feb-26 05:32N 54°54' W 000°58'29 5.8
2017-Feb-26 00:33N 54°31' W 000°28'6 5.6
2017-Feb-25 23:34N 54°26' W 000°23'6 6.4
2017-Feb-25 22:33N 54°21' W 000°16'7 6.6
2017-Feb-25 21:33N 54°16' W 000°09'7 6.8
2017-Feb-25 20:33N 54°10' W 000°02'7 6.8
2017-Feb-25 19:33N 54°04' E 000°01'1 0.4
2017-Feb-25 17:22N 54°03' E 000°01'0 0.0
2017-Feb-25 16:31N 54°03' E 000°01'0 0.1
2017-Feb-25 15:31N 54°03' E 000°01'0 0.1
2017-Feb-25 14:31N 54°03' E 000°01'0 0.1
2017-Feb-25 13:31N 54°03' E 000°01'0 0.0
2017-Feb-25 12:19N 54°03' E 000°01'0 0.2
2017-Feb-25 11:31N 54°03' E 000°01'0 0.0
2017-Feb-25 10:28N 54°03' E 000°01'0 0.0
2017-Feb-25 09:31N 54°03' E 000°01'0 0.0
2017-Feb-25 08:28N 54°03' E 000°01'0 0.0
2017-Feb-25 07:25N 54°03' E 000°01'0 0.0
2017-Feb-25 06:31N 54°03' E 000°01'0 0.0
2017-Feb-25 05:28N 54°03' E 000°01'0 0.1
2017-Feb-25 04:28N 54°03' E 000°01'0 0.2
2017-Feb-25 03:31N 54°03' E 000°01'0 0.0
2017-Feb-25 02:31N 54°03' E 000°01'0 0.1
2017-Feb-25 01:31N 54°03' E 000°00'0 0.1
2017-Feb-25 00:25N 54°03' E 000°00'0 0.0
2017-Feb-24 22:04N 54°03' E 000°01'0 0.0
2017-Feb-24 20:28N 54°03' E 000°01'0 0.0
2017-Feb-24 19:22N 54°03' E 000°01'0 0.2
2017-Feb-24 18:22N 54°03' E 000°00'0 0.2
2017-Feb-24 17:31N 54°03' E 000°00'0 0.0
2017-Feb-24 16:31N 54°03' E 000°00'0 0.0
2017-Feb-24 15:31N 54°03' E 000°00'0 0.0
2017-Feb-24 14:31N 54°03' E 000°00'0 0.0
2017-Feb-24 13:28N 54°03' E 000°00'0 0.0
2017-Feb-24 12:31N 54°03' E 000°00'0 0.0
2017-Feb-24 11:28N 54°03' E 000°00'0 0.0
2017-Feb-24 10:31N 54°03' E 000°00'0 0.1
2017-Feb-24 09:31N 54°03' E 000°00'4 4.1
2017-Feb-24 08:34N 54°07' W 000°00'9 8.8
2017-Feb-24 07:33N 54°14' W 000°08'6 6.2
2017-Feb-24 06:34N 54°19' W 000°15'1 1.0
2017-Feb-24 05:33N 54°19' W 000°13'4 3.6
2017-Feb-24 04:34N 54°16' W 000°09'3 3.2
2017-Feb-24 03:33N 54°13' W 000°06'3 2.5
2017-Feb-24 02:34N 54°11' W 000°04'2 2.2
2017-Feb-24 01:34N 54°09' W 000°02'2 2.1
2017-Feb-24 00:33N 54°07' W 000°01'3 2.5
2017-Feb-23 23:34N 54°05' W 000°00'3 2.6
2017-Feb-23 22:33N 54°02' E 000°02'9 8.8
2017-Feb-23 21:33N 54°11' W 000°03'2 2.4
2017-Feb-23 20:33N 54°09' E 000°00'5 5.0
2017-Feb-23 19:34N 54°05' E 000°04'4 4.0
2017-Feb-23 18:33N 54°02' E 000°09'7 7.4
2017-Feb-23 17:33N 53°58' E 000°20'171 5.9
2017-Feb-22 12:29N 51°31' E 002°45'8 9.0
2017-Feb-22 11:34N 51°23' E 002°46'9 9.0
2017-Feb-22 10:33N 51°24' E 003°00'9 9.2
2017-Feb-22 09:34N 51°25' E 003°15'9 9.4
2017-Feb-22 08:34N 51°25' E 003°30'8 8.2
2017-Feb-22 07:33N 51°25' E 003°43'2 2.0
2017-Feb-22 06:32N 51°24' E 003°46'0 0.0
2017-Feb-22 05:32N 51°24' E 003°45'0 0.1
2017-Feb-22 04:32N 51°24' E 003°45'0 0.1
2017-Feb-22 03:32N 51°24' E 003°45'0 0.0
2017-Feb-22 02:23N 51°24' E 003°45'0 0.1
2017-Feb-22 01:20N 51°24' E 003°45'0 0.0
2017-Feb-22 00:32N 51°24' E 003°45'0 0.0
2017-Feb-21 23:32N 51°24' E 003°45'0 0.1
2017-Feb-21 22:29N 51°24' E 003°45'0 0.1
2017-Feb-21 21:29N 51°24' E 003°45'0 0.0
2017-Feb-21 20:26N 51°24' E 003°45'0 0.0
2017-Feb-21 19:29N 51°24' E 003°45'0 0.0
2017-Feb-21 18:23N 51°24' E 003°45'0 0.1
2017-Feb-21 17:29N 51°24' E 003°45'0 0.2
2017-Feb-21 16:32N 51°24' E 003°45'0 0.0
2017-Feb-21 15:32N 51°24' E 003°45'0 0.1
2017-Feb-21 14:32N 51°24' E 003°45'0 0.0
2017-Feb-21 13:32N 51°24' E 003°45'0 0.0
2017-Feb-21 12:32N 51°24' E 003°45'0 0.0
2017-Feb-21 11:33N 51°24' E 003°45'0 0.1
2017-Feb-21 10:33N 51°24' E 003°45'4 4.5
2017-Feb-21 09:33N 51°26' E 003°39'1212.5
2017-Feb-21 08:33N 51°24' E 003°20'1212.4
2017-Feb-21 07:33N 51°23' E 002°60'1111.4
2017-Feb-21 06:33N 51°22' E 002°42'1010.4
2017-Feb-21 05:33N 51°21' E 002°25'1211.8
2017-Feb-21 04:33N 51°14' E 002°09'9 9.1
2017-Feb-21 03:33N 51°10' E 001°56'7 6.6
2017-Feb-21 02:33N 51°07' E 001°48'6 6.3
2017-Feb-21 01:33N 51°02' E 001°40'9 8.5
2017-Feb-21 00:33N 50°56' E 001°31'1111.1
2017-Feb-20 23:33N 50°46' E 001°23'5610.9
2017-Feb-20 18:24N 50°19' E 000°06'1112.4
2017-Feb-20 17:33N 50°17' W 000°10'4110.3
2017-Feb-20 13:33N 50°06' W 001°12'7 7.2
2017-Feb-20 12:33N 50°05' W 001°23'6 6.5
2017-Feb-20 11:33N 50°04' W 001°33'6 5.7
2017-Feb-20 10:33N 50°02' W 001°42'6 5.6
2017-Feb-20 09:33N 49°59' W 001°50'6 6.3
2017-Feb-20 08:33N 49°57' W 001°59'6 6.0
2017-Feb-20 07:33N 49°55' W 002°08'20011.5
2017-Feb-19 14:10N 47°60' W 006°15'  
2017-Feb-17 05:10N 39°27' W 009°52'5 8.0
2017-Feb-17 04:33N 39°22' W 009°52'8 8.2
2017-Feb-17 03:33N 39°14' W 009°52'8 7.7
2017-Feb-17 02:33N 39°06' W 009°52'8 7.6
2017-Feb-17 01:33N 38°59' W 009°52'7 7.5
2017-Feb-17 00:33N 38°51' W 009°52'8 7.5
2017-Feb-16 23:34N 38°44' W 009°50'7 7.3
2017-Feb-16 22:34N 38°37' W 009°48'8 7.7
2017-Feb-16 21:33N 38°31' W 009°41'7 7.4
2017-Feb-16 20:33N 38°26' W 009°34'7 7.4
2017-Feb-16 19:34N 38°21' W 009°27'7 7.3
2017-Feb-16 18:33N 38°16' W 009°21'8 7.6
2017-Feb-16 17:34N 38°10' W 009°15'8 7.5
2017-Feb-16 16:33N 38°04' W 009°09'8 7.6
2017-Feb-16 15:34N 37°59' W 009°02'5 4.8
2017-Feb-16 14:34N 37°55' W 008°58'0 0.4
2017-Feb-16 13:33N 37°55' W 008°59'1 1.0
2017-Feb-16 12:34N 37°54' W 008°58'1 1.2
2017-Feb-16 11:34N 37°53' W 008°59'1 1.1
2017-Feb-16 10:34N 37°51' W 008°58'1 0.7
2017-Feb-16 09:34N 37°51' W 008°58'0 0.5
2017-Feb-16 08:33N 37°51' W 008°57'  

Dump ship's entire track history